Time;durP1;ratioP1;P1;durP2;ratioP2;P2;SDS_P1;SDS_P2;PMS_P1;PMS_P2;Temp;Humidity;BMP_temperature;BMP_pressure;BME280_temperature;BME280_humidity;BME280_pressure;Samples;Min_cycle;Max_cycle;Signal;HPM_P1;HPM_P2
2022/02/05 00:02:54;;;;;;;;;;;4.70;99.90;;;;;;5041015;28;19936;-80
2022/02/05 00:05:35;;;;;;;;;;;4.70;99.90;;;;;;5012810;28;19925;-80
2022/02/05 00:11:08;;;;;;;;;;;4.70;99.90;;;;;;5046453;28;19931;-81
2022/02/05 00:41:16;;;;;;;;;;;4.50;99.90;;;;;;5047145;28;19925;-80
2022/02/05 00:44:05;;;;;;;;;;;4.50;99.90;;;;;;5047153;28;20418;-79
2022/02/05 00:46:39;;;;;;;;;;;4.50;99.90;;;;;;5032162;28;19932;-81
2022/02/05 00:49:07;;;;;;;;;;;4.50;99.90;;;;;;5067357;28;19936;-80
2022/02/05 00:51:45;;;;;;;;;;;4.60;99.90;;;;;;5050717;28;19929;-83
2022/02/05 00:54:20;;;;;;;;;;;4.40;99.90;;;;;;5049134;28;19925;-80
2022/02/05 00:59:33;;;;;;;;;;;4.40;99.90;;;;;;5064259;28;19935;-80
2022/02/05 01:02:02;;;;;;;;;;;4.50;99.90;;;;;;5042851;28;20427;-79
2022/02/05 01:04:32;;;;;;;;;;;4.30;99.90;;;;;;5025219;28;19948;-82
2022/02/05 01:07:00;;;;;;;;;;;4.60;99.90;;;;;;5047729;28;19925;-80
2022/02/05 01:09:29;;;;;;;;;;;4.60;99.90;;;;;;5030591;28;19929;-79
2022/02/05 01:11:58;;;;;;;;;;;5.30;99.90;;;;;;5032286;28;19933;-82
2022/02/05 01:14:31;;;;;;;;;;;4.20;99.90;;;;;;5032777;28;19936;-81
2022/02/05 01:17:06;;;;;;;;;;;4.20;99.90;;;;;;5048832;28;19975;-81
2022/02/05 01:20:09;;;;;;;;;;;4.20;99.90;;;;;;5062696;28;19992;-80
2022/02/05 01:22:38;;;;;;;;;;;4.10;99.90;;;;;;5055496;28;19925;-81
2022/02/05 01:25:07;;;;;;;;;;;4.10;99.90;;;;;;5037530;28;19932;-80
2022/02/05 01:30:29;;;;;;;;;;;4.10;99.90;;;;;;5038343;28;19926;-80
2022/02/05 01:33:17;;;;;;;;;;;4.10;99.90;;;;;;5005814;28;19929;-79
2022/02/05 01:52:34;;;;;;;;;;;3.90;99.90;;;;;;5022819;28;19944;-78
2022/02/05 01:57:58;;;;;;;;;;;3.80;99.90;;;;;;5025417;28;19936;-79
2022/02/05 02:30:26;;;;;;;;;;;3.70;99.90;;;;;;5049203;28;20391;-79
2022/02/05 02:33:05;;;;;;;;;;;2.20;99.90;;;;;;5019232;28;19930;-79
2022/02/05 02:35:36;;;;;;;;;;;3.70;99.90;;;;;;5021790;28;19926;-80
2022/02/05 02:38:12;;;;;;;;;;;3.70;99.90;;;;;;5021108;28;19929;-80
2022/02/05 02:40:57;;;;;;;;;;;5.30;99.90;;;;;;5022108;28;19935;-80
2022/02/05 02:43:28;;;;;;;;;;;3.80;99.90;;;;;;5036040;28;19925;-80
2022/02/05 02:45:59;;;;;;;;;;;3.40;99.90;;;;;;4686128;28;10000265;-81
2022/02/05 02:48:28;;;;;;;;;;;3.60;99.90;;;;;;5026949;28;19932;-82
2022/02/05 02:59:04;;;;;;;;;;;3.60;99.90;;;;;;5005539;28;19926;-82
2022/02/05 03:01:35;;;;;;;;;;;3.70;99.90;;;;;;5037520;28;19971;-80
2022/02/05 03:04:03;;;;;;;;;;;3.60;99.90;;;;;;5024303;28;19936;-81
2022/02/05 03:06:31;;;;;;;;;;;3.60;99.90;;;;;;5023276;28;19932;-83
2022/02/05 03:08:59;;;;;;;;;;;3.60;99.90;;;;;;5022881;28;19936;-80
2022/02/05 03:11:27;;;;;;;;;;;3.60;99.90;;;;;;5023277;28;19925;-79
2022/02/05 03:13:55;;;;;;;;;;;3.60;99.90;;;;;;5023065;28;19926;-80
2022/02/05 03:16:28;;;;;;;;;;;3.60;99.90;;;;;;5026021;28;19925;-79
2022/02/05 03:21:25;;;;;;;;;;;3.50;99.90;;;;;;5005827;28;19926;-80
2022/02/05 03:23:53;;;;;;;;;;;3.50;99.90;;;;;;5017258;28;19929;-84
2022/02/05 03:26:21;;;;;;;;;;;3.50;99.90;;;;;;5044327;28;19925;-83
2022/02/05 03:28:48;;;;;;;;;;;3.50;99.90;;;;;;5056773;28;19925;-80
2022/02/05 03:31:16;;;;;;;;;;;3.50;99.90;;;;;;5049208;28;19929;-82
2022/02/05 03:33:44;;;;;;;;;;;3.70;99.90;;;;;;5048051;28;19925;-80
2022/02/05 03:36:13;;;;;;;;;;;3.30;99.90;;;;;;5026992;28;19936;-84
2022/02/05 03:38:41;;;;;;;;;;;3.40;99.90;;;;;;5037402;28;19952;-83
2022/02/05 03:41:09;;;;;;;;;;;3.50;99.90;;;;;;5044674;28;19929;-80
2022/02/05 03:43:38;;;;;;;;;;;3.60;99.90;;;;;;5019479;28;19931;-82
2022/02/05 03:46:07;;;;;;;;;;;3.40;99.90;;;;;;5047839;28;19929;-81
2022/02/05 03:48:36;;;;;;;;;;;3.40;99.90;;;;;;5064487;28;19928;-81
2022/02/05 03:51:04;;;;;;;;;;;2.00;99.90;;;;;;5051619;28;19925;-80
2022/02/05 03:53:31;;;;;;;;;;;3.40;99.90;;;;;;5040950;28;19930;-81
2022/02/05 03:55:59;;;;;;;;;;;3.30;99.90;;;;;;5028396;28;19940;-81
2022/02/05 03:58:27;;;;;;;;;;;3.30;99.90;;;;;;5056955;28;19940;-83
2022/02/05 04:00:55;;;;;;;;;;;3.30;99.90;;;;;;5063372;28;19936;-84
2022/02/05 04:03:24;;;;;;;;;;;3.30;99.90;;;;;;5044061;28;19936;-81
2022/02/05 04:05:51;;;;;;;;;;;3.30;99.90;;;;;;5048487;28;20429;-81
2022/02/05 04:08:19;;;;;;;;;;;3.40;99.90;;;;;;5026452;28;19925;-80
2022/02/05 04:10:58;;;;;;;;;;;3.30;99.90;;;;;;5009851;28;20413;-79
2022/02/05 04:16:22;;;;;;;;;;;3.30;99.90;;;;;;5044797;28;20646;-81
2022/02/05 04:18:54;;;;;;;;;;;3.30;99.90;;;;;;5066166;28;19925;-79
2022/02/05 04:21:23;;;;;;;;;;;3.30;99.90;;;;;;5049198;28;19925;-80
2022/02/05 04:23:52;;;;;;;;;;;3.20;99.90;;;;;;5059062;28;19939;-79
2022/02/05 04:26:20;;;;;;;;;;;3.20;99.90;;;;;;5029629;28;19925;-79
2022/02/05 04:28:48;;;;;;;;;;;3.20;99.90;;;;;;5047143;28;20614;-80
2022/02/05 04:31:16;;;;;;;;;;;3.20;99.90;;;;;;5058885;28;19926;-79
2022/02/05 04:33:44;;;;;;;;;;;3.20;99.90;;;;;;5036809;28;20667;-81
2022/02/05 04:36:12;;;;;;;;;;;3.30;99.90;;;;;;5010411;28;19925;-83
2022/02/05 04:38:43;;;;;;;;;;;2.30;99.90;;;;;;5044469;28;19932;-86
2022/02/05 04:42:05;;;;;;;;;;;3.20;99.90;;;;;;5015311;28;19936;-83
2022/02/05 04:45:04;;;;;;;;;;;3.10;99.90;;;;;;5046758;28;19925;-83
2022/02/05 05:06:49;;;;;;;;;;;3.00;99.90;;;;;;5044386;28;19936;-85
2022/02/05 05:09:30;;;;;;;;;;;3.00;99.90;;;;;;5026624;28;19929;-84
2022/02/05 05:12:18;;;;;;;;;;;3.00;99.90;;;;;;5000712;28;19925;-81
2022/02/05 05:20:20;;;;;;;;;;;3.00;99.90;;;;;;5065244;28;19925;-80
2022/02/05 05:22:48;;;;;;;;;;;3.00;99.90;;;;;;5048647;28;19925;-81
2022/02/05 05:25:18;;;;;;;;;;;2.80;99.90;;;;;;5029208;28;19932;-84
2022/02/05 05:27:46;;;;;;;;;;;2.90;99.90;;;;;;5026919;28;19926;-83
2022/02/05 05:30:15;;;;;;;;;;;2.80;99.90;;;;;;5026070;28;19937;-83
2022/02/05 05:32:43;;;;;;;;;;;2.90;99.90;;;;;;5009375;28;19929;-81
2022/02/05 05:35:11;;;;;;;;;;;2.90;99.90;;;;;;5026724;28;19929;-84
2022/02/05 05:37:39;;;;;;;;;;;2.30;99.90;;;;;;5025233;28;19929;-81
2022/02/05 05:40:08;;;;;;;;;;;2.90;99.90;;;;;;5026158;28;19930;-84
2022/02/05 05:42:40;;;;;;;;;;;3.10;99.90;;;;;;5022997;28;19936;-81
2022/02/05 05:45:32;;;;;;;;;;;2.90;99.90;;;;;;5023483;28;19936;-79
2022/02/05 05:48:09;;;;;;;;;;;2.90;99.90;;;;;;5037161;28;19929;-81
2022/02/05 05:53:12;;;;;;;;;;;2.90;99.90;;;;;;5043743;28;19925;-83
2022/02/05 05:55:44;;;;;;;;;;;2.90;99.90;;;;;;5039339;28;20305;-82
2022/02/05 05:58:13;;;;;;;;;;;3.00;99.90;;;;;;5048665;28;19931;-80
2022/02/05 06:00:41;;;;;;;;;;;2.10;99.90;;;;;;5032932;28;19936;-81
2022/02/05 06:03:09;;;;;;;;;;;3.00;99.90;;;;;;5024301;28;19926;-79
2022/02/05 06:05:37;;;;;;;;;;;3.00;99.90;;;;;;5022139;28;20254;-83
2022/02/05 06:08:10;;;;;;;;;;;3.00;99.90;;;;;;5023538;28;19956;-81
2022/02/05 06:10:38;;;;;;;;;;;3.10;99.90;;;;;;5024049;28;19925;-84
2022/02/05 06:13:07;;;;;;;;;;;3.10;99.90;;;;;;5040239;28;19936;-80
2022/02/05 06:15:36;;;;;;;;;;;3.10;99.90;;;;;;5022892;28;19930;-82
2022/02/05 06:18:07;;;;;;;;;;;3.10;99.90;;;;;;5037642;28;19926;-85
2022/02/05 06:20:36;;;;;;;;;;;3.20;99.90;;;;;;5059745;28;19925;-80
2022/02/05 06:23:05;;;;;;;;;;;3.00;99.90;;;;;;5042985;28;19935;-81
2022/02/05 06:25:35;;;;;;;;;;;3.20;99.90;;;;;;5023902;28;19926;-81
2022/02/05 06:28:04;;;;;;;;;;;3.00;99.90;;;;;;5030101;28;19955;-80
2022/02/05 06:30:32;;;;;;;;;;;3.20;99.90;;;;;;5048410;28;19929;-80
2022/02/05 06:33:00;;;;;;;;;;;3.30;99.90;;;;;;5029888;28;19926;-79
2022/02/05 06:35:29;;;;;;;;;;;3.30;99.90;;;;;;5021681;28;19925;-80
2022/02/05 06:37:57;;;;;;;;;;;3.20;99.90;;;;;;5038574;28;19937;-79
2022/02/05 06:40:25;;;;;;;;;;;3.20;99.90;;;;;;5021805;28;19929;-80
2022/02/05 06:42:53;;;;;;;;;;;3.10;99.90;;;;;;5023141;28;19926;-80
2022/02/05 06:45:22;;;;;;;;;;;3.30;99.90;;;;;;5026067;28;19935;-82
2022/02/05 06:47:50;;;;;;;;;;;3.60;99.90;;;;;;5027855;28;19929;-81
2022/02/05 06:50:22;;;;;;;;;;;3.40;99.90;;;;;;5021153;28;20562;-80
2022/02/05 06:52:50;;;;;;;;;;;3.20;99.90;;;;;;5027613;28;19930;-79
2022/02/05 06:55:18;;;;;;;;;;;3.50;99.90;;;;;;5003153;28;19956;-82
2022/02/05 06:57:46;;;;;;;;;;;3.50;99.90;;;;;;5028441;28;19926;-80
2022/02/05 07:00:14;;;;;;;;;;;3.50;99.90;;;;;;5030542;28;19945;-81
2022/02/05 07:02:43;;;;;;;;;;;3.60;99.90;;;;;;5022320;28;19953;-80
2022/02/05 07:05:39;;;;;;;;;;;4.20;99.90;;;;;;5018736;28;19925;-80
2022/02/05 07:08:30;;;;;;;;;;;3.60;99.90;;;;;;5020496;28;19930;-81
2022/02/05 07:11:00;;;;;;;;;;;3.80;99.90;;;;;;5034345;28;19944;-79
2022/02/05 07:13:28;;;;;;;;;;;3.70;99.90;;;;;;5036337;28;19952;-80
2022/02/05 07:16:20;;;;;;;;;;;3.70;99.90;;;;;;5025047;28;19929;-81
2022/02/05 07:19:00;;;;;;;;;;;3.70;99.90;;;;;;5015928;28;20559;-80
2022/02/05 07:21:41;;;;;;;;;;;2.70;99.90;;;;;;5016854;28;20527;-80
2022/02/05 07:24:20;;;;;;;;;;;3.70;99.90;;;;;;5030716;28;19929;-79
2022/02/05 07:30:01;;;;;;;;;;;3.90;99.90;;;;;;5047704;28;19931;-80
2022/02/05 07:32:55;;;;;;;;;;;4.00;99.90;;;;;;5048685;28;19939;-80
2022/02/05 07:35:24;;;;;;;;;;;3.90;99.90;;;;;;5038451;28;19926;-79
2022/02/05 07:37:56;;;;;;;;;;;3.90;99.90;;;;;;5045235;28;19925;-80
2022/02/05 07:40:24;;;;;;;;;;;4.00;99.90;;;;;;5048271;28;19931;-80
2022/02/05 07:42:55;;;;;;;;;;;4.20;99.90;;;;;;5028539;28;19925;-80
2022/02/05 07:45:23;;;;;;;;;;;4.10;99.90;;;;;;5045633;28;19932;-80
2022/02/05 07:51:09;;;;;;;;;;;4.30;99.90;;;;;;5038544;28;19931;-79
2022/02/05 07:53:37;;;;;;;;;;;4.20;99.90;;;;;;5024905;28;19948;-79
2022/02/05 07:56:07;;;;;;;;;;;4.20;99.90;;;;;;5045101;28;19925;-79
2022/02/05 07:58:35;;;;;;;;;;;4.20;99.90;;;;;;5037623;28;20673;-79
2022/02/05 08:01:05;;;;;;;;;;;4.30;99.90;;;;;;5045143;28;19925;-79
2022/02/05 08:03:33;;;;;;;;;;;4.40;99.90;;;;;;5028346;28;19925;-80
2022/02/05 08:06:03;;;;;;;;;;;4.40;99.90;;;;;;5027858;28;19925;-80
2022/02/05 08:08:35;;;;;;;;;;;4.60;99.90;;;;;;5040779;28;19925;-80
2022/02/05 08:11:37;;;;;;;;;;;4.60;99.90;;;;;;5019478;28;19936;-80
2022/02/05 08:14:09;;;;;;;;;;;4.50;99.90;;;;;;5027085;28;19933;-79
2022/02/05 08:19:13;;;;;;;;;;;4.70;99.90;;;;;;5024042;28;19929;-79
2022/02/05 08:21:43;;;;;;;;;;;4.80;99.90;;;;;;5037879;28;19940;-80
2022/02/05 08:24:16;;;;;;;;;;;5.20;99.90;;;;;;5060696;22;19928;-84
2022/02/05 08:27:11;;;;;;;;;;;4.80;99.90;;;;;;5065189;28;19929;-86
2022/02/05 08:29:52;;;;;;;;;;;4.90;99.90;;;;;;5049128;28;19926;-84
2022/02/05 08:32:25;;;;;;;;;;;4.90;99.90;;;;;;5051017;28;19932;-86
2022/02/05 08:34:57;;;;;;;;;;;5.10;99.90;;;;;;5067598;28;19932;-84
2022/02/05 08:37:52;;;;;;;;;;;5.10;99.90;;;;;;5033674;28;19929;-85
2022/02/05 08:40:26;;;;;;;;;;;5.00;99.90;;;;;;5051964;28;19940;-85
2022/02/05 08:43:06;;;;;;;;;;;5.30;99.90;;;;;;5066419;28;19925;-84
2022/02/05 08:45:38;;;;;;;;;;;5.00;99.90;;;;;;5042680;28;19925;-85
2022/02/05 08:48:09;;;;;;;;;;;5.10;99.90;;;;;;5050284;28;20365;-85
2022/02/05 08:50:43;;;;;;;;;;;5.10;99.90;;;;;;5047195;28;19932;-86
2022/02/05 08:53:24;;;;;;;;;;;5.10;99.90;;;;;;5048575;28;19925;-85
2022/02/05 08:58:54;;;;;;;;;;;5.20;99.90;;;;;;5061038;28;20207;-84
2022/02/05 09:01:31;;;;;;;;;;;5.30;99.90;;;;;;5047387;28;19919;-86
2022/02/05 09:06:49;;;;;;;;;;;5.70;99.90;;;;;;5067362;28;19925;-80
2022/02/05 09:09:35;;;;;;;;;;;5.30;99.90;;;;;;5048512;28;19931;-81
2022/02/05 09:14:45;;;;;;;;;;;5.40;99.90;;;;;;5049070;28;19933;-84
2022/02/05 09:17:14;;;;;;;;;;;5.60;99.90;;;;;;5064246;28;19925;-80
2022/02/05 09:19:42;;;;;;;;;;;5.70;99.90;;;;;;5044836;28;19935;-83
2022/02/05 09:22:11;;;;;;;;;;;5.50;99.90;;;;;;5063542;28;19924;-83
2022/02/05 09:24:39;;;;;;;;;;;5.50;99.90;;;;;;5044517;28;19939;-79
2022/02/05 09:27:12;;;;;;;;;;;3.90;99.90;;;;;;5026881;28;19925;-81
2022/02/05 09:29:57;;;;;;;;;;;5.60;99.90;;;;;;5062626;28;19929;-81
2022/02/05 09:32:28;;;;;;;;;;;4.50;99.90;;;;;;5029205;28;19929;-81
2022/02/05 09:34:57;;;;;;;;;;;5.70;99.90;;;;;;5043368;28;19935;-80
2022/02/05 09:37:28;;;;;;;;;;;5.80;99.90;;;;;;4710678;28;9999903;-82
2022/02/05 09:39:56;;;;;;;;;;;6.00;99.90;;;;;;5045365;28;19933;-82
2022/02/05 09:42:25;;;;;;;;;;;6.10;99.90;;;;;;5064624;28;19935;-81
2022/02/05 09:44:53;;;;;;;;;;;6.20;99.90;;;;;;5061354;28;19931;-80
2022/02/05 09:47:21;;;;;;;;;;;6.30;99.90;;;;;;5047299;28;19925;-82
2022/02/05 09:49:51;;;;;;;;;;;6.40;99.90;;;;;;5035394;28;19943;-80
2022/02/05 09:52:25;;;;;;;;;;;6.40;99.90;;;;;;5056409;28;19928;-81
2022/02/05 09:54:55;;;;;;;;;;;6.60;99.90;;;;;;5044796;28;19929;-82
2022/02/05 09:57:24;;;;;;;;;;;6.90;99.90;;;;;;5047430;28;19925;-87
2022/02/05 10:02:55;;;;;;;;;;;5.60;99.90;;;;;;5045176;28;19924;-79
2022/02/05 10:05:30;;;;;;;;;;;6.70;99.90;;;;;;5042829;28;19929;-81
2022/02/05 10:08:03;;;;;;;;;;;6.80;99.90;;;;;;5065903;28;19925;-81
2022/02/05 10:10:38;;;;;;;;;;;7.10;99.90;;;;;;5017052;28;20315;-80
2022/02/05 10:13:06;;;;;;;;;;;7.00;99.90;;;;;;5057892;28;19933;-83
2022/02/05 10:15:37;;;;;;;;;;;7.00;99.90;;;;;;5047935;28;19925;-82
2022/02/05 10:18:07;;;;;;;;;;;7.10;99.90;;;;;;5041519;28;19931;-85
2022/02/05 10:20:40;;;;;;;;;;;7.50;99.90;;;;;;5028813;28;19956;-81
2022/02/05 10:23:10;;;;;;;;;;;7.20;99.90;;;;;;5064051;28;20201;-81
2022/02/05 10:25:49;;;;;;;;;;;7.00;99.90;;;;;;5063745;28;19935;-84
2022/02/05 10:28:18;;;;;;;;;;;7.30;99.90;;;;;;5014872;28;20215;-81
2022/02/05 10:30:49;;;;;;;;;;;7.40;99.90;;;;;;5046884;28;19940;-81
2022/02/05 10:33:24;;;;;;;;;;;7.30;99.90;;;;;;5062200;28;19931;-80
2022/02/05 10:36:09;;;;;;;;;;;7.30;99.90;;;;;;5053102;28;19929;-80
2022/02/05 10:44:14;;;;;;;;;;;7.30;99.90;;;;;;5048853;28;19925;-81
2022/02/05 10:46:43;;;;;;;;;;;7.40;99.90;;;;;;5156708;22;19918;-79
2022/02/05 10:49:12;;;;;;;;;;;7.40;99.90;;;;;;5037578;28;19925;-81
2022/02/05 10:51:44;;;;;;;;;;;7.60;99.90;;;;;;5040936;28;19948;-81
2022/02/05 10:54:33;;;;;;;;;;;7.70;99.90;;;;;;5048680;28;19929;-84
2022/02/05 10:57:53;;;;;;;;;;;7.60;99.90;;;;;;5046180;28;19932;-84
2022/02/05 11:05:15;;;;;;;;;;;7.60;99.90;;;;;;5044298;28;19936;-81
2022/02/05 11:05:52;;;;;;;;;;;7.80;99.90;;;;;;5044880;28;19929;-82
2022/02/05 11:08:22;;;;;;;;;;;7.90;99.90;;;;;;5043583;28;19929;-80
2022/02/05 11:18:59;;;;;;;;;;;8.20;99.90;;;;;;5044078;28;19932;-80
2022/02/05 11:21:51;;;;;;;;;;;7.50;99.90;;;;;;5046294;28;19939;-84
2022/02/05 11:24:25;;;;;;;;;;;8.40;99.90;;;;;;5045221;28;19935;-82
2022/02/05 11:26:55;;;;;;;;;;;8.80;99.90;;;;;;5031389;28;19935;-81
2022/02/05 11:29:26;;;;;;;;;;;6.90;99.90;;;;;;5047991;28;19932;-81
2022/02/05 11:32:16;;;;;;;;;;;8.10;99.90;;;;;;5016402;28;19931;-83
2022/02/05 11:35:00;;;;;;;;;;;8.80;99.90;;;;;;5048169;28;19929;-80
2022/02/05 11:37:28;;;;;;;;;;;8.60;99.90;;;;;;5045767;28;20097;-81
2022/02/05 11:39:56;;;;;;;;;;;8.70;99.90;;;;;;5062094;28;20424;-81
2022/02/05 11:42:36;;;;;;;;;;;8.70;99.90;;;;;;5045633;28;19933;-82
2022/02/05 11:45:29;;;;;;;;;;;8.80;99.90;;;;;;5026424;28;20265;-80
2022/02/05 11:48:17;;;;;;;;;;;8.80;99.90;;;;;;5062512;28;19932;-82
2022/02/05 11:51:05;;;;;;;;;;;8.80;99.90;;;;;;5063056;28;20008;-83
2022/02/05 11:53:53;;;;;;;;;;;8.80;99.90;;;;;;5043381;28;19929;-82
2022/02/05 11:56:21;;;;;;;;;;;8.80;99.90;;;;;;5043963;28;19933;-84
2022/02/05 11:58:58;;;;;;;;;;;9.60;99.90;;;;;;5063185;28;19940;-81
2022/02/05 12:01:37;;;;;;;;;;;8.90;99.90;;;;;;5045254;28;19933;-82
2022/02/05 12:04:10;;;;;;;;;;;9.10;99.90;;;;;;5045306;28;19925;-82
2022/02/05 12:07:07;;;;;;;;;;;9.10;99.90;;;;;;5043238;28;19925;-81
2022/02/05 12:09:57;;;;;;;;;;;9.30;99.90;;;;;;5031942;28;19925;-82
2022/02/05 12:12:45;;;;;;;;;;;9.40;99.90;;;;;;5041628;28;19936;-82
2022/02/05 12:15:13;;;;;;;;;;;9.60;99.90;;;;;;5042466;28;19925;-81
2022/02/05 12:26:20;;;;;;;;;;;9.30;99.90;;;;;;5055744;28;19926;-81
2022/02/05 12:28:50;;;;;;;;;;;9.80;99.90;;;;;;5041430;28;19929;-82
2022/02/05 12:31:17;;;;;;;;;;;9.90;99.90;;;;;;5040844;28;19925;-82
2022/02/05 12:33:53;;;;;;;;;;;10.00;99.90;;;;;;5038995;28;20460;-80
2022/02/05 12:36:36;;;;;;;;;;;10.10;99.90;;;;;;5008043;28;20381;-81
2022/02/05 12:39:09;;;;;;;;;;;10.10;99.90;;;;;;5025404;28;19925;-80
2022/02/05 12:41:38;;;;;;;;;;;10.20;99.90;;;;;;5041956;28;19933;-81
2022/02/05 12:44:07;;;;;;;;;;;10.30;99.90;;;;;;5022409;28;19929;-85
2022/02/05 12:46:46;;;;;;;;;;;10.40;99.90;;;;;;5035471;28;19929;-81
2022/02/05 12:49:25;;;;;;;;;;;10.50;99.90;;;;;;5053587;28;19944;-81
2022/02/05 12:51:57;;;;;;;;;;;11.60;99.90;;;;;;5042665;28;19940;-81
2022/02/05 12:54:34;;;;;;;;;;;10.40;99.90;;;;;;5038772;28;19925;-81
2022/02/05 12:57:04;;;;;;;;;;;10.50;99.90;;;;;;5011758;28;19929;-81
2022/02/05 12:59:35;;;;;;;;;;;10.60;99.90;;;;;;5058761;28;19940;-82
2022/02/05 13:02:08;;;;;;;;;;;10.60;99.90;;;;;;5040567;28;19958;-83
2022/02/05 13:05:02;;;;;;;;;;;11.20;99.90;;;;;;5040809;28;19925;-83
2022/02/05 13:07:39;;;;;;;;;;;10.70;99.90;;;;;;5040327;28;19935;-80
2022/02/05 13:10:07;;;;;;;;;;;10.90;99.90;;;;;;5047062;28;19932;-81
2022/02/05 13:12:43;;;;;;;;;;;10.90;99.90;;;;;;5057736;28;19913;-82
2022/02/05 13:15:21;;;;;;;;;;;9.60;99.90;;;;;;5042979;28;19932;-82
2022/02/05 13:18:19;;;;;;;;;;;11.10;99.90;;;;;;5046890;28;19925;-81
2022/02/05 13:28:43;;;;;;;;;;;11.10;99.90;;;;;;5041157;28;19936;-82
2022/02/05 13:34:12;;;;;;;;;;;9.90;99.90;;;;;;5041939;28;19933;-82
2022/02/05 13:36:46;;;;;;;;;;;11.20;99.90;;;;;;5038047;28;19929;-81
2022/02/05 13:42:19;;;;;;;;;;;11.20;99.90;;;;;;5038711;28;19933;-81
2022/02/05 13:44:55;;;;;;;;;;;11.50;99.90;;;;;;5042377;28;19929;-82
2022/02/05 13:47:34;;;;;;;;;;;11.30;99.90;;;;;;5038061;28;19929;-81
2022/02/05 13:50:09;;;;;;;;;;;11.30;99.90;;;;;;5039679;28;19936;-81
2022/02/05 13:52:41;;;;;;;;;;;11.40;99.90;;;;;;5042278;28;19934;-84
2022/02/05 13:55:15;;;;;;;;;;;11.80;99.90;;;;;;5041271;28;19929;-84
2022/02/05 13:57:53;;;;;;;;;;;11.30;99.90;;;;;;5043133;28;19925;-81
2022/02/05 14:00:21;;;;;;;;;;;11.30;99.90;;;;;;5027515;28;19932;-81
2022/02/05 14:02:57;;;;;;;;;;;11.30;99.90;;;;;;5049514;28;19933;-82
2022/02/05 14:05:25;;;;;;;;;;;11.30;99.90;;;;;;5046066;28;19929;-83
2022/02/05 14:07:52;;;;;;;;;;;11.30;99.90;;;;;;5044153;28;19929;-81
2022/02/05 14:10:23;;;;;;;;;;;11.40;99.90;;;;;;5047446;28;19935;-82
2022/02/05 14:12:52;;;;;;;;;;;11.20;99.90;;;;;;5048636;28;19928;-81
2022/02/05 14:15:25;;;;;;;;;;;11.10;99.90;;;;;;5060456;28;19925;-82
2022/02/05 14:18:06;;;;;;;;;;;11.00;99.90;;;;;;5047977;28;19940;-81
2022/02/05 14:20:47;;;;;;;;;;;11.00;99.90;;;;;;5062217;28;19913;-84
2022/02/05 14:23:17;;;;;;;;;;;11.20;99.90;;;;;;5050708;28;19933;-81
2022/02/05 14:25:52;;;;;;;;;;;11.00;99.90;;;;;;5051179;28;19933;-81
2022/02/05 14:28:34;;;;;;;;;;;11.10;99.90;;;;;;5040199;28;22005;-81
2022/02/05 14:40:14;;;;;;;;;;;10.80;99.90;;;;;;5062085;28;19925;-81
2022/02/05 14:42:23;;;;;;;;;;;10.70;99.90;;;;;;5041148;28;19956;-81
2022/02/05 14:44:51;;;;;;;;;;;10.60;99.90;;;;;;4694459;28;10000581;-83
2022/02/05 14:47:21;;;;;;;;;;;9.80;99.90;;;;;;5045305;28;19929;-81
2022/02/05 14:49:51;;;;;;;;;;;10.60;99.90;;;;;;5043308;28;20126;-82
2022/02/05 14:52:19;;;;;;;;;;;10.60;99.90;;;;;;5040569;28;19935;-82
2022/02/05 14:54:59;;;;;;;;;;;10.60;99.90;;;;;;5043692;28;19933;-83
2022/02/05 14:57:31;;;;;;;;;;;10.70;99.90;;;;;;5042719;28;19936;-82
2022/02/05 15:00:03;;;;;;;;;;;11.00;99.90;;;;;;5045016;28;19935;-82
2022/02/05 15:02:35;;;;;;;;;;;10.80;99.90;;;;;;5043283;28;19932;-82
2022/02/05 15:05:10;;;;;;;;;;;10.80;99.90;;;;;;5045497;28;19925;-83
2022/02/05 15:07:42;;;;;;;;;;;10.80;99.90;;;;;;5043206;28;19925;-82
2022/02/05 15:10:14;;;;;;;;;;;11.00;99.90;;;;;;5046189;28;19940;-83
2022/02/05 15:12:51;;;;;;;;;;;9.60;99.90;;;;;;5043670;28;19933;-84
2022/02/05 15:15:24;;;;;;;;;;;10.80;99.90;;;;;;5045035;28;20341;-85
2022/02/05 15:17:54;;;;;;;;;;;10.80;99.90;;;;;;5059474;28;19929;-84
2022/02/05 15:20:24;;;;;;;;;;;10.80;99.90;;;;;;5044408;28;19926;-83
2022/02/05 15:22:59;;;;;;;;;;;10.90;99.90;;;;;;5047331;28;19933;-83
2022/02/05 15:25:28;;;;;;;;;;;10.80;99.90;;;;;;5026666;28;19939;-84
2022/02/05 15:28:10;;;;;;;;;;;10.80;99.90;;;;;;5051084;28;19943;-84
2022/02/05 15:30:40;;;;;;;;;;;10.80;99.90;;;;;;5047171;28;19933;-84
2022/02/05 15:33:08;;;;;;;;;;;10.80;99.90;;;;;;5045085;28;19935;-82
2022/02/05 15:35:39;;;;;;;;;;;10.80;99.90;;;;;;5042812;28;20434;-83
2022/02/05 15:38:14;;;;;;;;;;;10.80;99.90;;;;;;5029525;28;19929;-83
2022/02/05 15:46:38;;;;;;;;;;;10.70;99.90;;;;;;5036441;28;19935;-82
2022/02/05 15:49:08;;;;;;;;;;;10.60;99.90;;;;;;5030462;28;19925;-82
2022/02/05 15:51:54;;;;;;;;;;;10.80;99.90;;;;;;5064075;28;19929;-82
2022/02/05 15:54:36;;;;;;;;;;;10.60;99.90;;;;;;5044489;28;19925;-83
2022/02/05 16:00:07;;;;;;;;;;;10.80;99.90;;;;;;5055863;28;19933;-83
2022/02/05 16:02:40;;;;;;;;;;;10.50;99.90;;;;;;5024868;28;19934;-83
2022/02/05 16:05:11;;;;;;;;;;;10.70;99.90;;;;;;5040677;28;19925;-82
2022/02/05 16:07:45;;;;;;;;;;;11.90;99.90;;;;;;5044475;28;19925;-82
2022/02/05 16:10:17;;;;;;;;;;;10.50;99.90;;;;;;5058364;28;19926;-84
2022/02/05 16:12:48;;;;;;;;;;;10.40;99.90;;;;;;5043835;28;20668;-86
2022/02/05 16:15:18;;;;;;;;;;;10.50;99.90;;;;;;5044829;28;19929;-83
2022/02/05 16:17:52;;;;;;;;;;;9.50;99.90;;;;;;5059825;28;19936;-82
2022/02/05 16:20:25;;;;;;;;;;;10.40;99.90;;;;;;5044413;28;19925;-83
2022/02/05 16:22:57;;;;;;;;;;;10.60;99.90;;;;;;5043250;28;19929;-81
2022/02/05 16:25:25;;;;;;;;;;;10.30;99.90;;;;;;5044261;28;19955;-83
2022/02/05 16:27:55;;;;;;;;;;;10.40;99.90;;;;;;5046582;28;19931;-84
2022/02/05 16:30:30;;;;;;;;;;;9.10;99.90;;;;;;5033099;28;19937;-82
2022/02/05 16:33:02;;;;;;;;;;;10.50;99.90;;;;;;5044735;28;19925;-83
2022/02/05 16:35:32;;;;;;;;;;;10.30;99.90;;;;;;5047042;28;19929;-84
2022/02/05 16:38:15;;;;;;;;;;;10.20;99.90;;;;;;5046330;28;20004;-85
2022/02/05 16:40:43;;;;;;;;;;;10.30;99.90;;;;;;5045170;28;19931;-80
2022/02/05 16:43:11;;;;;;;;;;;10.50;99.90;;;;;;5039158;28;19925;-81
2022/02/05 16:45:39;;;;;;;;;;;10.20;99.90;;;;;;5058158;28;19929;-81
2022/02/05 16:48:07;;;;;;;;;;;10.40;99.90;;;;;;5057861;28;19935;-81
2022/02/05 16:50:36;;;;;;;;;;;10.30;99.90;;;;;;5009919;28;19929;-81
2022/02/05 16:53:05;;;;;;;;;;;10.30;99.90;;;;;;5037197;28;19925;-81
2022/02/05 16:55:33;;;;;;;;;;;10.20;99.90;;;;;;5042248;28;19940;-81
2022/02/05 16:58:01;;;;;;;;;;;10.30;99.90;;;;;;5051908;28;19936;-80
2022/02/05 17:00:33;;;;;;;;;;;10.30;99.90;;;;;;5037648;28;19929;-81
2022/02/05 17:03:06;;;;;;;;;;;10.40;99.90;;;;;;5039895;28;19936;-80
2022/02/05 17:05:39;;;;;;;;;;;10.30;99.90;;;;;;5033776;28;19925;-83
2022/02/05 17:08:09;;;;;;;;;;;10.20;99.90;;;;;;5014162;28;20366;-81
2022/02/05 17:10:37;;;;;;;;;;;9.40;99.90;;;;;;5023370;28;19925;-81
2022/02/05 17:13:06;;;;;;;;;;;10.20;99.90;;;;;;5023286;28;19933;-81
2022/02/05 17:15:35;;;;;;;;;;;10.20;99.90;;;;;;5037707;28;19932;-81
2022/02/05 17:18:17;;;;;;;;;;;10.30;99.90;;;;;;5037791;28;20702;-82
2022/02/05 17:20:52;;;;;;;;;;;10.20;99.90;;;;;;5037946;28;19932;-81
2022/02/05 17:23:26;;;;;;;;;;;10.00;99.90;;;;;;5038286;28;19933;-80
2022/02/05 17:25:59;;;;;;;;;;;10.10;99.90;;;;;;5038016;28;21144;-81
2022/02/05 17:28:32;;;;;;;;;;;11.60;99.90;;;;;;5013909;28;19944;-80
2022/02/05 17:31:01;;;;;;;;;;;9.70;99.90;;;;;;5033827;28;19945;-82
2022/02/05 17:33:56;;;;;;;;;;;9.90;99.90;;;;;;5036765;28;19929;-80
2022/02/05 17:36:31;;;;;;;;;;;9.90;99.90;;;;;;5033715;28;19936;-84
2022/02/05 17:39:06;;;;;;;;;;;9.80;99.90;;;;;;5039735;28;20456;-86
2022/02/05 17:42:31;;;;;;;;;;;9.70;99.90;;;;;;5032063;28;19940;-85
2022/02/05 17:45:19;;;;;;;;;;;9.70;99.90;;;;;;5039970;28;19944;-80
2022/02/05 17:47:47;;;;;;;;;;;9.60;99.90;;;;;;5037178;28;19928;-81
2022/02/05 17:50:15;;;;;;;;;;;9.60;99.90;;;;;;5035472;28;19929;-80
2022/02/05 17:53:19;;;;;;;;;;;9.50;99.90;;;;;;5050989;28;19940;-79
2022/02/05 17:56:30;;;;;;;;;;;9.60;99.90;;;;;;5040849;28;19921;-79
2022/02/05 17:59:04;;;;;;;;;;;9.70;99.90;;;;;;5042117;28;20000;-79
2022/02/05 18:01:32;;;;;;;;;;;9.60;99.90;;;;;;5038468;28;20351;-79
2022/02/05 18:04:00;;;;;;;;;;;9.70;99.90;;;;;;5039203;28;19929;-79
2022/02/05 18:06:36;;;;;;;;;;;10.70;99.90;;;;;;5039594;28;20260;-80
2022/02/05 18:09:24;;;;;;;;;;;9.60;99.90;;;;;;5036126;28;19925;-79
2022/02/05 18:12:08;;;;;;;;;;;9.60;99.90;;;;;;5019276;28;20479;-79
2022/02/05 18:17:10;;;;;;;;;;;9.60;99.90;;;;;;5038988;28;20447;-81
2022/02/05 18:19:38;;;;;;;;;;;9.50;99.90;;;;;;5039930;28;19944;-80
2022/02/05 18:22:06;;;;;;;;;;;9.50;99.90;;;;;;5039936;28;19925;-79
2022/02/05 18:24:35;;;;;;;;;;;9.60;99.90;;;;;;5023452;28;19929;-79
2022/02/05 18:27:12;;;;;;;;;;;9.60;99.90;;;;;;5036890;28;19933;-79
2022/02/05 18:32:43;;;;;;;;;;;9.50;99.90;;;;;;5022026;28;19936;-83
2022/02/05 18:35:12;;;;;;;;;;;9.50;99.90;;;;;;5024862;28;20383;-81